Time;durP1;ratioP1;P1;durP2;ratioP2;P2;SDS_P1;SDS_P2;PMS_P1;PMS_P2;Temp;Humidity;BMP_temperature;BMP_pressure;BME280_temperature;BME280_humidity;BME280_pressure;Samples;Min_cycle;Max_cycle;Signal;HPM_P1;HPM_P2
2022/06/05 00:02:08;;;;;;;5.97;5.10;;;;;;;20.00;100.00;99215.19;5024363;28;20253;-79
2022/06/05 00:04:46;;;;;;;5.17;4.67;;;;;;;19.71;100.00;99210.91;5030477;28;20277;-79
2022/06/05 00:07:33;;;;;;;4.97;4.53;;;;;;;19.71;100.00;99207.38;5030308;28;20213;-79
2022/06/05 00:10:08;;;;;;;4.80;4.40;;;;;;;19.67;100.00;99214.06;5030646;28;20201;-78
2022/06/05 00:12:44;;;;;;;5.63;4.70;;;;;;;19.63;100.00;99200.09;5029733;28;20195;-78
2022/06/05 00:15:12;;;;;;;5.77;4.70;;;;;;;19.53;100.00;99199.31;5033198;28;20227;-77
2022/06/05 00:17:42;;;;;;;6.00;4.80;;;;;;;19.71;100.00;99194.78;5028214;28;20217;-80
2022/06/05 00:20:11;;;;;;;5.20;4.70;;;;;;;19.62;100.00;99193.03;5030899;28;20206;-80
2022/06/05 00:22:40;;;;;;;6.03;5.13;;;;;;;19.55;100.00;99191.09;5030081;28;20197;-80
2022/06/05 00:25:10;;;;;;;6.47;4.93;;;;;;;19.55;100.00;99194.63;5027930;28;20253;-80
2022/06/05 00:27:48;;;;;;;5.27;4.60;;;;;;;19.54;100.00;99197.47;4986761;28;20222;-80
2022/06/05 00:30:22;;;;;;;4.77;4.23;;;;;;;19.67;100.00;99203.31;4981382;28;20306;-79
2022/06/05 00:33:02;;;;;;;6.47;4.77;;;;;;;19.72;100.00;99209.06;4987976;28;20198;-77
2022/06/05 00:35:33;;;;;;;5.63;4.30;;;;;;;19.71;100.00;99197.47;4984856;28;20199;-80
2022/06/05 00:38:06;;;;;;;5.53;5.03;;;;;;;19.81;100.00;99207.31;4985945;28;20218;-78
2022/06/05 00:40:48;;;;;;;5.13;4.63;;;;;;;19.65;100.00;99208.00;4985836;28;20230;-78
2022/06/05 00:43:19;;;;;;;5.93;4.40;;;;;;;19.70;100.00;99209.25;4986461;28;20203;-78
2022/06/05 00:45:48;;;;;;;4.87;4.47;;;;;;;19.70;100.00;99206.53;5002155;28;20729;-78
2022/06/05 00:48:19;;;;;;;6.17;5.57;;;;;;;19.81;100.00;99207.31;5028905;28;20221;-78
2022/06/05 00:50:48;;;;;;;5.20;4.43;;;;;;;19.52;100.00;99208.38;5029256;28;20201;-78
2022/06/05 00:53:16;;;;;;;6.17;5.33;;;;;;;19.50;100.00;99214.91;5029291;28;20190;-78
2022/06/05 00:55:47;;;;;;;6.00;4.77;;;;;;;19.56;100.00;99216.97;5028767;28;20229;-78
2022/06/05 00:58:17;;;;;;;5.20;4.70;;;;;;;19.28;100.00;99205.44;5023315;28;20194;-78
2022/06/05 01:00:49;;;;;;;5.50;5.00;;;;;;;19.28;100.00;99213.47;5023979;28;20196;-78
2022/06/05 01:03:20;;;;;;;5.70;5.10;;;;;;;19.32;100.00;99207.66;5028668;28;20354;-78
2022/06/05 01:05:48;;;;;;;5.80;5.20;;;;;;;19.21;100.00;99207.06;5029745;28;20280;-78
2022/06/05 01:08:17;;;;;;;5.10;4.70;;;;;;;19.34;100.00;99207.50;5026909;28;20224;-78
2022/06/05 01:10:56;;;;;;;5.73;4.50;;;;;;;19.25;100.00;99208.44;5085990;28;20203;-77
2022/06/05 01:13:37;;;;;;;5.30;4.80;;;;;;;19.23;100.00;99205.91;5083722;28;20199;-78
2022/06/05 01:16:15;;;;;;;7.73;5.17;;;;;;;19.29;100.00;99202.59;5085349;28;20203;-78
2022/06/05 01:18:52;;;;;;;5.77;5.27;;;;;;;19.20;100.00;99210.72;5085515;28;20260;-78
2022/06/05 01:21:40;;;;;;;5.53;4.80;;;;;;;19.20;100.00;99211.56;5087236;28;20214;-78
2022/06/05 01:24:29;;;;;;;5.53;4.93;;;;;;;19.21;100.00;99213.28;5088215;28;20207;-78
2022/06/05 01:27:02;;;;;;;6.63;5.80;;;;;;;19.12;100.00;99217.69;5084824;28;20196;-78
2022/06/05 01:29:38;;;;;;;5.47;5.03;;;;;;;19.17;100.00;99220.75;5040580;28;20221;-78
2022/06/05 01:32:11;;;;;;;5.63;4.73;;;;;;;19.04;100.00;99227.50;5024614;28;20225;-78
2022/06/05 01:34:44;;;;;;;6.10;4.40;;;;;;;19.16;100.00;99220.91;5027940;28;20194;-78
2022/06/05 01:37:19;;;;;;;5.37;4.43;;;;;;;19.12;100.00;99219.53;5028569;28;20202;-78
2022/06/05 01:39:53;;;;;;;5.70;4.67;;;;;;;19.19;100.00;99209.88;5026473;28;20198;-78
2022/06/05 01:42:27;;;;;;;5.83;5.33;;;;;;;19.06;100.00;99202.19;5027291;28;20201;-78
2022/06/05 01:45:00;;;;;;;5.30;4.80;;;;;;;18.93;100.00;99207.09;5028315;28;20272;-78
2022/06/05 01:47:33;;;;;;;4.77;4.37;;;;;;;18.89;100.00;99208.34;5027085;28;20206;-78
2022/06/05 01:50:08;;;;;;;5.80;4.80;;;;;;;18.71;100.00;99211.00;5028246;28;20650;-78
2022/06/05 01:52:44;;;;;;;5.97;4.90;;;;;;;18.53;100.00;99210.91;5028548;28;20257;-78
2022/06/05 01:55:18;;;;;;;5.70;5.20;;;;;;;18.53;100.00;99212.75;5022659;28;20663;-78
2022/06/05 01:57:50;;;;;;;5.67;4.90;;;;;;;18.62;100.00;99202.94;5029377;28;20201;-78
2022/06/05 02:00:21;;;;;;;5.40;5.00;;;;;;;18.75;100.00;99193.63;5031399;28;20672;-79
2022/06/05 02:02:57;;;;;;;5.37;4.90;;;;;;;18.61;100.00;99199.44;5031477;28;20233;-78
2022/06/05 02:05:31;;;;;;;5.60;5.10;;;;;;;18.42;100.00;99194.97;5031440;28;20185;-78
2022/06/05 02:08:04;;;;;;;5.83;5.13;;;;;;;18.53;100.00;99192.13;5031410;28;20282;-78
2022/06/05 02:10:37;;;;;;;5.23;4.63;;;;;;;18.41;100.00;99184.41;5037968;27;20202;-78
2022/06/05 02:13:07;;;;;;;6.43;5.13;;;;;;;18.40;100.00;99185.41;5026665;28;20224;-78
2022/06/05 02:15:35;;;;;;;5.20;4.80;;;;;;;18.46;100.00;99177.63;5031464;28;20201;-78
2022/06/05 02:18:04;;;;;;;5.20;4.70;;;;;;;18.49;100.00;99177.31;5035965;28;20198;-78
2022/06/05 02:20:32;;;;;;;5.17;4.70;;;;;;;18.57;100.00;99160.47;5031305;28;20276;-78
2022/06/05 02:23:02;;;;;;;6.20;5.13;;;;;;;18.41;100.00;99155.75;5031380;28;20198;-78
2022/06/05 02:25:30;;;;;;;5.90;5.30;;;;;;;18.48;100.00;99151.50;5034361;28;20270;-79
2022/06/05 02:27:59;;;;;;;6.77;5.57;;;;;;;18.38;100.00;99144.47;5001622;28;20229;-78
2022/06/05 02:30:41;;;;;;;7.73;7.03;;;;;;;18.44;100.00;99136.69;5026078;28;20221;-79
2022/06/05 02:33:16;;;;;;;6.60;6.00;;;;;;;18.24;100.00;99117.19;5031744;28;20223;-78
2022/06/05 02:35:54;;;;;;;5.93;5.43;;;;;;;18.24;100.00;99106.44;5037566;27;20224;-79
2022/06/05 02:38:34;;;;;;;6.93;6.33;;;;;;;18.11;100.00;99105.91;5031200;28;20197;-78
2022/06/05 02:41:10;;;;;;;6.13;5.53;;;;;;;17.94;100.00;99095.97;5031178;28;20209;-78
2022/06/05 02:43:45;;;;;;;6.40;5.87;;;;;;;17.84;100.00;99085.28;5035992;27;20201;-79
2022/06/05 02:46:22;;;;;;;6.00;5.50;;;;;;;17.77;100.00;99067.28;5031183;28;20205;-78
2022/06/05 02:49:00;;;;;;;7.80;5.27;;;;;;;17.88;100.00;99056.38;5028455;28;20252;-78
2022/06/05 02:51:35;;;;;;;6.53;5.20;;;;;;;17.91;100.00;99045.34;5032099;28;20213;-78
2022/06/05 02:54:03;;;;;;;6.77;6.07;;;;;;;18.05;100.00;99038.63;5029788;28;20254;-79
2022/06/05 02:56:33;;;;;;;6.43;5.83;;;;;;;18.10;100.00;99028.34;5031256;28;20190;-78
2022/06/05 02:59:04;;;;;;;6.97;6.33;;;;;;;18.01;100.00;99013.97;5032078;28;20194;-78
2022/06/05 03:04:19;;;;;;;6.97;6.30;;;;;;;17.72;100.00;99006.91;5031439;28;20205;-78
2022/06/05 03:06:47;;;;;;;8.03;6.50;;;;;;;17.89;100.00;99007.97;5031395;28;20288;-78
2022/06/05 03:09:16;;;;;;;7.10;6.50;;;;;;;17.77;100.00;99000.28;5031367;28;20232;-79
2022/06/05 03:11:44;;;;;;;7.33;6.63;;;;;;;17.81;100.00;98999.00;5025469;28;20225;-78
2022/06/05 03:14:12;;;;;;;6.33;5.83;;;;;;;17.90;100.00;99000.78;5029050;28;20201;-78
2022/06/05 03:16:42;;;;;;;7.37;6.13;;;;;;;17.90;100.00;98990.91;5035690;27;20209;-78
2022/06/05 03:19:11;;;;;;;8.97;6.40;;;;;;;17.88;100.00;98989.38;5031280;28;20194;-78
2022/06/05 03:21:40;;;;;;;7.10;6.50;;;;;;;17.88;100.00;98989.38;5030935;28;20204;-79
2022/06/05 03:24:08;;;;;;;7.17;6.53;;;;;;;17.78;100.00;98989.44;5030442;28;20206;-78
2022/06/05 03:26:37;;;;;;;7.37;6.77;;;;;;;17.88;100.00;98978.66;5028589;28;20190;-78
2022/06/05 03:29:07;;;;;;;8.70;6.83;;;;;;;17.86;100.00;98988.69;5029144;28;20213;-80
2022/06/05 03:31:35;;;;;;;8.83;7.37;;;;;;;17.70;100.00;98983.94;5027825;28;20308;-78
2022/06/05 03:34:05;;;;;;;7.57;6.80;;;;;;;17.83;100.00;98984.44;5029358;28;20202;-78
2022/06/05 03:36:34;;;;;;;7.73;6.93;;;;;;;17.84;100.00;98971.88;5030770;28;20201;-78
2022/06/05 03:39:03;;;;;;;7.50;6.80;;;;;;;17.84;100.00;98964.69;5037332;27;20194;-80
2022/06/05 03:41:31;;;;;;;11.47;8.03;;;;;;;17.65;100.00;98962.91;5030810;28;20280;-78
2022/06/05 03:43:59;;;;;;;8.93;8.13;;;;;;;17.65;100.00;98959.41;5029760;28;20691;-78
2022/06/05 03:46:28;;;;;;;8.47;7.67;;;;;;;17.67;100.00;98960.97;5030639;28;20190;-78
2022/06/05 03:48:56;;;;;;;8.93;7.67;;;;;;;17.71;100.00;98969.56;5033046;28;20222;-78
2022/06/05 03:51:26;;;;;;;8.30;7.60;;;;;;;17.89;100.00;98965.09;5030142;28;20224;-78
2022/06/05 03:53:55;;;;;;;8.37;7.67;;;;;;;17.84;100.00;98972.72;5031333;28;20203;-81
2022/06/05 03:56:25;;;;;;;8.67;7.90;;;;;;;17.92;100.00;98990.75;5030720;28;20555;-78
2022/06/05 03:58:54;;;;;;;9.30;7.43;;;;;;;17.92;100.00;98996.13;5029467;28;20194;-78
2022/06/05 04:01:24;;;;;;;8.07;7.37;;;;;;;18.01;100.00;98996.06;5029227;28;20194;-78
2022/06/05 04:03:54;;;;;;;10.50;7.67;;;;;;;17.99;100.00;99003.41;5035147;28;20224;-78
2022/06/05 04:06:27;;;;;;;7.57;6.87;;;;;;;18.03;100.00;99003.94;5030429;28;20278;-78
2022/06/05 04:09:00;;;;;;;8.60;7.70;;;;;;;18.13;100.00;99007.41;5030438;28;20696;-78
2022/06/05 04:11:30;;;;;;;7.67;7.03;;;;;;;18.21;100.00;99004.00;5029952;28;20197;-78
2022/06/05 04:13:59;;;;;;;8.67;7.67;;;;;;;18.14;100.00;99005.56;5028593;28;20198;-78
2022/06/05 04:16:30;;;;;;;8.73;7.83;;;;;;;18.15;100.00;99009.97;5030003;28;20198;-79
2022/06/05 04:19:01;;;;;;;9.67;7.90;;;;;;;18.10;100.00;99017.59;5031813;28;20198;-79
2022/06/05 04:21:31;;;;;;;8.77;7.97;;;;;;;18.08;100.00;99011.56;5033611;28;20202;-80
2022/06/05 04:24:01;;;;;;;8.00;7.17;;;;;;;18.16;100.00;99006.31;5033524;28;20201;-79
2022/06/05 04:26:33;;;;;;;8.03;7.23;;;;;;;18.22;100.00;99016.41;5027352;28;20209;-79
2022/06/05 04:29:02;;;;;;;9.17;7.60;;;;;;;18.19;100.00;99022.91;5030595;28;20205;-79
2022/06/05 04:31:32;;;;;;;8.60;7.77;;;;;;;18.26;100.00;99044.63;5030041;28;20221;-79
2022/06/05 04:34:02;;;;;;;8.47;7.40;;;;;;;18.35;100.00;99043.72;5030122;28;20206;-79
2022/06/05 04:36:31;;;;;;;8.07;7.27;;;;;;;18.34;100.00;99039.34;5036470;28;20206;-79
2022/06/05 04:39:01;;;;;;;7.90;7.20;;;;;;;18.59;100.00;99037.75;5032876;28;20350;-79
2022/06/05 04:41:29;;;;;;;7.77;7.07;;;;;;;18.68;100.00;99030.69;5030003;28;20210;-79
2022/06/05 04:43:59;;;;;;;8.03;7.23;;;;;;;18.50;100.00;99036.84;5028592;28;20198;-79
2022/06/05 04:46:30;;;;;;;8.30;7.30;;;;;;;18.57;100.00;99035.25;5029577;28;20196;-79
2022/06/05 04:48:59;;;;;;;8.17;7.37;;;;;;;18.60;100.00;99034.94;5033458;28;20216;-79
2022/06/05 04:51:28;;;;;;;8.47;7.70;;;;;;;18.65;100.00;99031.00;5026038;28;20190;-79
2022/06/05 04:53:57;;;;;;;8.27;7.57;;;;;;;18.70;100.00;99026.00;5029535;28;20198;-79
2022/06/05 04:56:27;;;;;;;8.63;7.90;;;;;;;18.81;100.00;99012.34;5029816;28;20196;-79
2022/06/05 04:58:56;;;;;;;8.47;7.60;;;;;;;18.94;100.00;99020.03;5028297;28;20205;-79
2022/06/05 05:01:27;;;;;;;8.17;7.47;;;;;;;18.92;100.00;99028.22;5029572;28;20683;-79
2022/06/05 05:03:57;;;;;;;7.40;6.67;;;;;;;19.04;100.00;99018.94;5029335;28;20269;-79
2022/06/05 05:06:26;;;;;;;8.53;7.70;;;;;;;18.73;100.00;99029.22;5028011;28;20247;-79
2022/06/05 05:08:54;;;;;;;7.90;7.10;;;;;;;18.66;100.00;99038.88;5029631;28;20204;-79
2022/06/05 05:11:23;;;;;;;8.03;7.20;;;;;;;18.55;100.00;99049.81;5027463;28;20220;-79
2022/06/05 05:13:53;;;;;;;8.00;7.27;;;;;;;18.62;100.00;99058.06;5024961;28;20212;-79
2022/06/05 05:16:22;;;;;;;12.93;7.73;;;;;;;18.49;100.00;99056.59;5035820;28;20211;-79
2022/06/05 05:18:50;;;;;;;8.43;7.63;;;;;;;18.84;100.00;99053.16;5029138;28;20226;-79
2022/06/05 05:21:20;;;;;;;7.87;7.17;;;;;;;19.06;100.00;99059.03;5027500;28;20197;-79
2022/06/05 05:23:50;;;;;;;7.60;7.00;;;;;;;19.17;100.00;99059.63;5029462;28;20202;-79
2022/06/05 05:26:21;;;;;;;7.77;7.17;;;;;;;19.19;100.00;99056.78;5029232;28;20190;-79
2022/06/05 05:28:51;;;;;;;7.50;6.90;;;;;;;19.37;100.00;99062.16;5027783;28;20572;-78
2022/06/05 05:31:23;;;;;;;8.00;7.20;;;;;;;19.33;100.00;99061.63;5031254;28;20234;-78
2022/06/05 05:33:53;;;;;;;8.60;6.70;;;;;;;19.48;100.00;99061.03;5030127;28;20226;-78
2022/06/05 05:36:23;;;;;;;7.60;6.80;;;;;;;19.50;100.00;99062.59;5023247;28;20193;-78
2022/06/05 05:44:31;;;;;;;7.97;7.27;;;;;;;19.56;100.00;99075.41;5032749;28;20277;-78
2022/06/05 05:47:02;;;;;;;7.70;6.90;;;;;;;19.65;100.00;99063.72;5032796;28;20739;-78
2022/06/05 05:49:30;;;;;;;8.07;7.37;;;;;;;19.61;100.00;99066.91;5028783;28;20198;-78
2022/06/05 05:51:59;;;;;;;8.07;6.80;;;;;;;19.55;100.00;99070.16;5032468;28;20210;-78
2022/06/05 05:54:27;;;;;;;7.00;6.30;;;;;;;19.61;100.00;99061.53;5034666;28;20197;-78
2022/06/05 05:56:55;;;;;;;7.47;6.83;;;;;;;19.53;100.00;99053.38;5033266;28;20212;-78
2022/06/05 05:59:23;;;;;;;8.43;7.40;;;;;;;19.54;100.00;99047.84;5036217;28;20209;-78
2022/06/05 06:01:52;;;;;;;7.73;6.87;;;;;;;19.65;100.00;99039.53;5030042;28;20197;-78
2022/06/05 06:04:21;;;;;;;7.20;6.60;;;;;;;19.71;100.00;99046.13;5031292;28;20194;-78
2022/06/05 06:06:50;;;;;;;8.47;7.00;;;;;;;19.66;100.00;99037.69;5029257;28;20201;-79
2022/06/05 06:09:19;;;;;;;7.80;7.10;;;;;;;19.66;100.00;99032.31;5030901;28;20198;-78
2022/06/05 06:11:48;;;;;;;7.47;6.87;;;;;;;19.76;100.00;99029.50;5030907;28;20224;-80
2022/06/05 06:14:16;;;;;;;8.23;7.30;;;;;;;19.63;100.00;99028.09;5034208;28;20205;-78
2022/06/05 06:16:44;;;;;;;9.77;7.13;;;;;;;19.62;100.00;99023.75;5031159;28;20192;-78
2022/06/05 06:19:13;;;;;;;8.03;7.23;;;;;;;19.75;100.00;99034.03;5032076;28;20274;-78
2022/06/05 06:21:43;;;;;;;6.80;6.20;;;;;;;19.68;100.00;99033.84;5029785;28;20202;-78
2022/06/05 06:24:11;;;;;;;7.00;6.47;;;;;;;19.79;100.00;99027.38;5030065;28;20194;-78
2022/06/05 06:26:40;;;;;;;7.03;6.43;;;;;;;19.92;100.00;99032.28;5028366;28;20198;-78
2022/06/05 06:29:08;;;;;;;7.57;6.93;;;;;;;19.92;100.00;99030.44;5034528;28;20198;-78
2022/06/05 06:31:38;;;;;;;7.30;6.70;;;;;;;19.72;100.00;99029.00;5031850;28;20700;-78
2022/06/05 06:34:07;;;;;;;7.60;6.90;;;;;;;19.95;100.00;99019.34;5030596;28;20205;-78
2022/06/05 06:36:36;;;;;;;7.20;6.60;;;;;;;20.14;100.00;99010.19;5030715;28;20208;-78
2022/06/05 06:39:19;;;;;;;7.93;7.23;;;;;;;20.09;100.00;98999.09;5031950;28;20722;-79
2022/06/05 06:41:48;;;;;;;7.67;6.90;;;;;;;20.14;100.00;99006.66;5030166;28;20193;-78
2022/06/05 06:44:18;;;;;;;7.27;6.67;;;;;;;20.18;100.00;99000.81;5031662;28;20280;-78
2022/06/05 06:46:47;;;;;;;7.43;6.73;;;;;;;20.46;100.00;98997.88;5028966;28;20215;-78
2022/06/05 06:49:17;;;;;;;8.07;6.70;;;;;;;20.62;100.00;98986.28;5029434;28;20696;-79
2022/06/05 06:51:45;;;;;;;7.27;6.67;;;;;;;20.54;100.00;98979.88;5031718;28;20296;-79
2022/06/05 06:54:14;;;;;;;7.23;6.60;;;;;;;20.61;100.00;98972.00;5035265;28;20201;-78
2022/06/05 06:56:44;;;;;;;7.13;6.53;;;;;;;20.49;100.00;98971.47;5037392;27;20581;-79
2022/06/05 06:59:13;;;;;;;7.00;6.40;;;;;;;20.69;100.00;98963.94;5034821;28;20201;-79
2022/06/05 07:01:41;;;;;;;7.33;6.60;;;;;;;20.62;100.00;98941.38;5033379;28;20218;-79
2022/06/05 07:04:09;;;;;;;7.60;7.00;;;;;;;20.61;100.00;98939.69;5037896;27;20186;-79
2022/06/05 07:06:37;;;;;;;7.43;6.70;;;;;;;20.51;100.00;98922.88;5031484;28;20190;-79
2022/06/05 07:09:05;;;;;;;7.47;6.87;;;;;;;20.57;100.00;98915.00;5034535;28;20209;-79
2022/06/05 07:11:33;;;;;;;7.97;7.10;;;;;;;20.44;100.00;98905.72;5029934;28;20214;-79
2022/06/05 07:14:03;;;;;;;7.97;7.20;;;;;;;20.60;100.00;98892.28;5027890;28;20281;-78
2022/06/05 07:16:31;;;;;;;7.83;7.10;;;;;;;20.62;100.00;98882.16;5037480;27;20197;-79
2022/06/05 07:19:00;;;;;;;7.33;6.73;;;;;;;20.67;100.00;98860.97;5031172;28;20198;-80
2022/06/05 07:21:28;;;;;;;8.30;7.50;;;;;;;20.40;100.00;98859.44;5028297;28;20202;-80
2022/06/05 07:23:58;;;;;;;10.88;7.80;;;;;;;20.16;100.00;98851.34;5026558;28;20208;-79
2022/06/05 07:26:31;;;;;;;8.67;7.90;;;;;;;20.23;100.00;98858.59;5035341;28;20189;-79
2022/06/05 07:28:59;;;;;;;9.00;8.20;;;;;;;20.42;100.00;98849.34;5032692;28;20206;-79
2022/06/05 07:31:31;;;;;;;9.20;8.20;;;;;;;20.47;100.00;98830.91;5032484;28;20230;-80
2022/06/05 07:34:02;;;;;;;8.73;7.90;;;;;;;20.46;100.00;98829.22;5028396;28;20309;-79
2022/06/05 07:36:30;;;;;;;8.90;8.03;;;;;;;20.51;100.00;98826.00;5030458;28;20568;-79
2022/06/05 07:39:01;;;;;;;8.37;7.37;;;;;;;20.45;100.00;98838.28;4994178;28;20194;-79
2022/06/05 07:41:31;;;;;;;8.20;7.40;;;;;;;20.70;100.00;98827.50;5031864;28;20198;-79
2022/06/05 07:44:00;;;;;;;7.67;7.07;;;;;;;20.56;100.00;98831.72;5039571;28;20209;-80
2022/06/05 07:46:34;;;;;;;9.50;7.47;;;;;;;20.70;100.00;98832.88;5030797;28;20221;-79
2022/06/05 07:49:02;;;;;;;7.83;7.10;;;;;;;20.82;100.00;98831.50;5012357;28;20202;-79
2022/06/05 07:54:28;;;;;;;8.20;7.43;;;;;;;20.91;100.00;98826.94;5011191;28;20239;-80
2022/06/05 07:56:57;;;;;;;7.73;7.03;;;;;;;21.01;100.00;98819.50;5008866;28;20206;-80
2022/06/05 07:59:26;;;;;;;8.07;7.13;;;;;;;21.22;100.00;98827.00;5008620;28;20186;-80
2022/06/05 08:02:00;;;;;;;7.47;6.77;;;;;;;21.40;100.00;98839.25;5008624;28;20204;-79
2022/06/05 08:04:29;;;;;;;9.00;7.67;;;;;;;21.57;100.00;98829.25;5008831;28;20244;-80
2022/06/05 08:07:00;;;;;;;7.57;6.50;;;;;;;21.73;100.00;98828.34;5016995;28;20193;-80
2022/06/05 08:09:29;;;;;;;7.83;6.93;;;;;;;21.64;100.00;98816.75;5031051;28;20202;-79
2022/06/05 08:12:01;;;;;;;8.73;7.63;;;;;;;21.45;100.00;98819.88;5030638;28;20225;-79
2022/06/05 08:14:34;;;;;;;6.53;5.93;;;;;;;21.65;100.00;98822.97;5030416;28;20197;-80
2022/06/05 08:17:06;;;;;;;6.63;6.03;;;;;;;21.86;100.00;98816.94;5029494;28;20194;-79
2022/06/05 08:19:37;;;;;;;8.37;7.53;;;;;;;22.10;100.00;98816.81;5029189;28;20198;-79
2022/06/05 08:22:07;;;;;;;7.68;6.97;;;;;;;21.98;100.00;98802.03;5030072;28;20193;-79
2022/06/05 08:24:36;;;;;;;7.13;6.43;;;;;;;21.84;100.00;98805.50;5027177;28;20197;-79
2022/06/05 08:27:13;;;;;;;7.07;6.40;;;;;;;22.39;100.00;98805.28;5033212;28;20594;-80
2022/06/05 08:29:42;;;;;;;6.72;6.07;;;;;;;22.45;100.00;98818.03;5030620;28;20193;-79
2022/06/05 08:32:14;;;;;;;6.93;6.22;;;;;;;22.48;100.00;98823.06;5031415;28;20221;-79
2022/06/05 08:34:43;;;;;;;6.35;5.85;;;;;;;22.41;100.00;98821.31;5027131;28;20224;-79
2022/06/05 08:43:06;;;;;;;7.07;6.47;;;;;;;22.09;100.00;98833.16;5033548;28;20205;-79
2022/06/05 08:45:42;;;;;;;8.88;6.68;;;;;;;22.04;100.00;98825.59;5033167;28;20206;-79
2022/06/05 08:48:20;;;;;;;7.78;6.53;;;;;;;21.75;100.00;98828.16;5024616;28;20324;-79
2022/06/05 08:50:52;;;;;;;7.35;6.75;;;;;;;21.66;100.00;98827.34;5033358;28;20213;-79
2022/06/05 08:53:23;;;;;;;7.55;6.85;;;;;;;21.49;100.00;98823.91;5028887;28;20229;-79
2022/06/05 08:55:54;;;;;;;7.43;6.72;;;;;;;21.45;100.00;98819.88;5030070;28;20277;-79
2022/06/05 08:58:29;;;;;;;7.30;6.63;;;;;;;21.37;100.00;98834.22;5023021;28;20206;-79
2022/06/05 09:01:01;;;;;;;8.05;6.40;;;;;;;21.40;100.00;98835.72;5024793;28;20210;-79
2022/06/05 09:03:37;;;;;;;9.25;6.57;;;;;;;21.30;100.00;98856.66;5029529;28;20197;-79
2022/06/05 09:06:10;;;;;;;7.78;6.90;;;;;;;21.28;100.00;98850.59;5033452;28;20209;-79
2022/06/05 09:08:42;;;;;;;7.43;6.50;;;;;;;21.39;100.00;98858.31;5029065;28;20201;-79
2022/06/05 09:11:15;;;;;;;7.57;6.88;;;;;;;21.42;100.00;98866.03;5032768;28;20190;-79
2022/06/05 09:13:49;;;;;;;7.75;6.75;;;;;;;21.55;100.00;98868.19;5013244;28;20194;-79
2022/06/05 09:16:25;;;;;;;7.28;6.57;;;;;;;21.53;100.00;98873.75;5030005;28;20205;-79
2022/06/05 09:18:57;;;;;;;7.35;6.75;;;;;;;21.53;100.00;98873.75;5032739;28;20197;-79
2022/06/05 09:21:28;;;;;;;7.43;6.80;;;;;;;21.43;100.00;98882.06;5032845;28;20277;-79
2022/06/05 09:24:06;;;;;;;7.22;6.53;;;;;;;21.39;100.00;98885.25;5036718;28;20236;-79
2022/06/05 09:26:43;;;;;;;7.13;6.37;;;;;;;21.29;100.00;98890.84;5030547;28;20208;-79
2022/06/05 09:29:22;;;;;;;6.78;6.15;;;;;;;21.23;100.00;98887.94;5028314;28;20254;-79
2022/06/05 09:32:24;;;;;;;6.78;6.18;;;;;;;21.29;100.00;98882.75;5032611;28;20230;-79
2022/06/05 09:34:59;;;;;;;7.38;6.78;;;;;;;21.30;100.00;98887.13;5033104;28;20197;-80
2022/06/05 09:37:34;;;;;;;7.22;6.63;;;;;;;21.24;100.00;98874.34;5032380;28;20198;-80
2022/06/05 09:40:16;;;;;;;7.20;6.50;;;;;;;21.32;100.00;98879.69;5036852;28;20201;-79
2022/06/05 09:42:58;;;;;;;7.00;6.45;;;;;;;21.38;100.00;98876.31;5033668;28;20208;-80
2022/06/05 09:45:40;;;;;;;7.50;6.80;;;;;;;21.29;100.00;98879.22;5027954;28;20220;-79
2022/06/05 09:48:20;;;;;;;7.45;6.85;;;;;;;21.38;100.00;98883.56;5030883;28;20205;-79
2022/06/05 09:50:51;;;;;;;8.07;7.15;;;;;;;21.32;100.00;98879.69;5032793;28;20193;-79
2022/06/05 09:53:23;;;;;;;7.90;7.20;;;;;;;21.31;100.00;98885.28;5036233;28;20766;-80
2022/06/05 09:56:03;;;;;;;8.27;7.30;;;;;;;21.32;100.00;98881.56;5100045;28;20197;-79
2022/06/05 09:58:48;;;;;;;7.75;7.03;;;;;;;21.32;100.00;98876.16;5031216;28;20242;-79
2022/06/05 10:01:30;;;;;;;7.53;6.88;;;;;;;21.31;100.00;98877.19;5032055;28;20202;-79
2022/06/05 10:03:59;;;;;;;7.93;6.93;;;;;;;21.24;100.00;98874.34;5028286;28;20216;-79
2022/06/05 10:06:37;;;;;;;7.18;6.57;;;;;;;21.23;100.00;98869.09;5029573;28;20201;-79
2022/06/05 10:09:11;;;;;;;8.48;7.65;;;;;;;21.16;100.00;98860.88;5035955;28;20190;-79
2022/06/05 10:11:47;;;;;;;7.78;6.68;;;;;;;21.23;100.00;98850.25;5031193;28;20234;-80
2022/06/05 10:14:28;;;;;;;7.82;7.03;;;;;;;21.28;100.00;98847.91;5038575;27;20234;-79
2022/06/05 10:17:06;;;;;;;7.30;6.70;;;;;;;21.14;100.00;98844.06;5031326;28;20190;-80
2022/06/05 10:19:55;;;;;;;7.80;7.07;;;;;;;21.11;100.00;98849.78;5032193;28;20198;-79
2022/06/05 10:22:36;;;;;;;7.90;7.10;;;;;;;21.15;100.00;98851.97;5030771;28;20236;-79
2022/06/05 10:25:15;;;;;;;7.50;6.97;;;;;;;21.17;100.00;98853.66;5038366;27;20753;-80
2022/06/05 10:27:50;;;;;;;7.70;6.90;;;;;;;21.14;100.00;98852.97;5030169;28;20198;-80
2022/06/05 10:30:20;;;;;;;9.73;7.47;;;;;;;21.12;100.00;98856.84;5026931;28;20217;-80
2022/06/05 10:32:58;;;;;;;8.68;7.22;;;;;;;21.11;100.00;98861.38;5031854;28;20233;-79
2022/06/05 10:35:31;;;;;;;7.88;7.20;;;;;;;21.10;100.00;98859.72;5030378;28;20186;-80
2022/06/05 10:38:14;;;;;;;8.07;7.37;;;;;;;21.21;100.00;98846.88;5031985;28;20205;-79
2022/06/05 10:40:47;;;;;;;7.78;7.07;;;;;;;21.31;100.00;98842.16;5031519;28;20190;-80
2022/06/05 10:43:22;;;;;;;7.95;7.30;;;;;;;21.45;100.00;98843.31;5026080;28;20228;-80
2022/06/05 10:45:55;;;;;;;7.75;6.97;;;;;;;21.49;100.00;98837.38;5031269;28;20208;-79
2022/06/05 10:48:46;;;;;;;8.20;7.43;;;;;;;21.48;100.00;98833.00;5031946;28;20205;-79
2022/06/05 10:51:23;;;;;;;8.10;7.37;;;;;;;21.65;100.00;98829.22;5031643;28;20198;-80
2022/06/05 10:53:58;;;;;;;7.97;7.35;;;;;;;21.79;100.00;98807.88;5031046;28;20683;-80
2022/06/05 10:56:34;;;;;;;7.72;7.10;;;;;;;21.77;100.00;98801.84;5026842;28;20201;-80
2022/06/05 10:59:11;;;;;;;9.63;7.68;;;;;;;21.69;100.00;98802.72;5030855;28;20190;-80
2022/06/05 11:02:06;;;;;;;8.20;7.45;;;;;;;21.81;100.00;98797.75;5031430;28;20197;-80
2022/06/05 11:04:46;;;;;;;8.30;7.30;;;;;;;21.93;100.00;98797.19;5027455;28;20233;-79
2022/06/05 11:07:25;;;;;;;8.45;7.53;;;;;;;22.20;100.00;98792.31;5026617;28;20220;-80
2022/06/05 11:10:03;;;;;;;7.60;6.82;;;;;;;22.25;100.00;98779.94;5030890;28;20205;-80
2022/06/05 11:15:39;;;;;;;7.90;6.95;;;;;;;23.05;100.00;98759.53;5030921;28;20198;-80
2022/06/05 11:18:16;;;;;;;7.85;7.05;;;;;;;23.29;100.00;98759.25;5031193;28;20185;-80
2022/06/05 11:20:53;;;;;;;7.05;6.47;;;;;;;23.45;100.00;98752.78;5030871;28;20189;-80
2022/06/05 11:23:27;;;;;;;6.60;6.10;;;;;;;23.65;100.00;98745.75;5030559;28;20284;-80
2022/06/05 11:26:04;;;;;;;6.82;6.22;;;;;;;23.66;100.00;98744.72;5030832;28;20205;-80
2022/06/05 11:28:59;;;;;;;6.55;5.95;;;;;;;23.67;100.00;98746.41;5027375;28;20620;-79
2022/06/05 11:31:42;;;;;;;7.18;6.45;;;;;;;23.38;100.00;98750.00;5027934;28;20236;-80
2022/06/05 11:34:24;;;;;;;7.45;6.35;;;;;;;23.43;100.00;98754.81;5029358;28;20214;-80
2022/06/05 11:36:54;;;;;;;8.38;7.57;;;;;;;23.20;100.00;98759.53;5031471;28;20224;-80
2022/06/05 11:39:32;;;;;;;7.10;6.40;;;;;;;23.10;100.00;98743.63;5032222;28;20216;-79
2022/06/05 11:42:17;;;;;;;6.80;6.22;;;;;;;23.20;100.00;98752.28;5030101;28;20284;-80
2022/06/05 11:44:52;;;;;;;6.50;5.93;;;;;;;23.27;100.00;98753.19;5032465;28;20205;-80
2022/06/05 11:47:35;;;;;;;8.50;7.80;;;;;;;23.20;100.00;98741.47;5030381;28;20206;-80
2022/06/05 11:50:12;;;;;;;6.80;6.15;;;;;;;23.71;100.00;98749.53;5029742;28;20285;-80
2022/06/05 11:52:50;;;;;;;6.72;6.13;;;;;;;23.74;100.00;98749.19;5030070;28;20247;-80
2022/06/05 11:55:27;;;;;;;6.15;5.65;;;;;;;23.77;100.00;98747.94;5024969;28;20201;-80
2022/06/05 11:58:07;;;;;;;7.18;6.47;;;;;;;23.62;100.00;98750.69;5029654;28;20197;-80
2022/06/05 12:00:41;;;;;;;7.80;6.10;;;;;;;23.41;100.00;98748.78;5030607;28;20272;-79
2022/06/05 12:03:16;;;;;;;6.97;6.10;;;;;;;23.42;100.00;98735.06;5021733;28;20205;-79
2022/06/05 12:05:55;;;;;;;6.88;6.30;;;;;;;22.97;100.00;98744.28;5030758;28;20194;-79
2022/06/05 12:08:33;;;;;;;8.35;7.55;;;;;;;23.04;100.00;98742.50;5030695;28;20277;-79
2022/06/05 12:11:06;;;;;;;6.53;6.00;;;;;;;23.18;100.00;98735.41;5026311;28;20224;-79